Laguna Vista, Texas
Current Conditions -  °F | °C
As of 4:53 AM on Wednesday 22 Oct 2014 (Local Time) from KPIL Reporting Station
Broken Clouds Broken Clouds  
Wind Chill: 77°   Ceiling: 5000
Heat Index: 78°   Visibility: 8mi
Dew Point: 72°   Wind: 5mph
Humidity: 84%   Direction: 70°ENE
Pressure: 29.93"   Gusts: NA
Location:  26.0776°N, 97.3389°W
Report Text: KPIL 220953Z AUTO 07004KT 8SM FEW022 SCT035 BKN050 25/22 A2993 RMK AO2 SLP134 T02500222
Loading
Personal Weather Stations






























Interactive Weather Map
Tropical Storm Tracking
New forecast layout! Learn more

10-Day Weather Forecast

Advertisements
Track Severe Weather on mobile